Time;durP1;ratioP1;P1;durP2;ratioP2;P2;SDS_P1;SDS_P2;PMS_P1;PMS_P2;Temp;Humidity;BMP_temperature;BMP_pressure;BME280_temperature;BME280_humidity;BME280_pressure;Samples;Min_cycle;Max_cycle;Signal;HPM_P1;HPM_P2
2021/05/02 00:00:23;;;;;;;49.88;35.80;;;;;;;8.73;80.00;99357.11;1621186;87;21164;-77
2021/05/02 00:02:49;;;;;;;56.50;35.48;;;;;;;8.72;79.98;99358.91;1637719;87;21168;-76
2021/05/02 00:05:18;;;;;;;48.80;34.30;;;;;;;8.72;80.08;99353.65;1637760;87;21196;-76
2021/05/02 00:07:45;;;;;;;47.65;34.38;;;;;;;8.71;80.09;99335.34;1624974;87;21212;-76
2021/05/02 00:10:14;;;;;;;44.63;34.10;;;;;;;8.69;80.07;99322.33;1637273;87;21159;-76
2021/05/02 00:12:40;;;;;;;46.55;33.23;;;;;;;8.68;80.12;99335.11;1643494;87;21305;-76
2021/05/02 00:15:11;;;;;;;48.28;34.92;;;;;;;8.68;80.13;99346.94;1636502;87;21520;-76
2021/05/02 00:17:41;;;;;;;48.83;33.50;;;;;;;8.67;80.13;99342.16;1608742;87;21181;-76
2021/05/02 00:20:09;;;;;;;48.80;35.15;;;;;;;8.68;80.25;99341.68;1604631;87;21195;-76
2021/05/02 00:22:38;;;;;;;50.30;35.58;;;;;;;8.68;80.18;99345.63;1637577;87;21600;-76
2021/05/02 00:25:07;;;;;;;46.35;34.60;;;;;;;8.69;80.26;99347.31;1637742;87;21145;-76
2021/05/02 00:27:34;;;;;;;51.18;35.85;;;;;;;8.69;80.41;99354.72;1637723;87;21149;-76
2021/05/02 00:30:03;;;;;;;52.03;37.65;;;;;;;8.68;80.38;99348.25;1630250;87;21317;-76
2021/05/02 00:32:30;;;;;;;55.45;36.90;;;;;;;8.68;80.35;99346.94;1621154;88;21672;-76
2021/05/02 00:34:57;;;;;;;46.73;34.88;;;;;;;8.67;80.38;99334.27;1622280;87;21159;-76
2021/05/02 00:37:25;;;;;;;51.15;36.65;;;;;;;8.67;80.53;99328.19;1603244;87;21158;-76
2021/05/02 00:39:51;;;;;;;48.17;34.25;;;;;;;8.67;80.42;99334.27;1638203;87;21175;-76
2021/05/02 00:42:27;;;;;;;49.67;34.83;;;;;;;8.68;80.40;99327.22;1637662;87;21321;-76
2021/05/02 00:45:04;;;;;;;46.28;34.35;;;;;;;8.67;80.32;99313.23;1634252;87;21219;-77
2021/05/02 00:47:35;;;;;;;50.20;36.75;;;;;;;8.66;80.49;99316.00;1621312;88;21206;-77
2021/05/02 00:50:11;;;;;;;48.90;35.30;;;;;;;8.66;80.53;99317.31;1631946;87;21171;-77
2021/05/02 00:53:12;;;;;;;51.05;36.40;;;;;;;8.67;80.54;99307.14;1637957;87;21137;-77
2021/05/02 00:55:55;;;;;;;48.60;33.63;;;;;;;8.65;80.52;99296.77;1638012;87;21612;-76
2021/05/02 00:58:38;;;;;;;45.25;34.80;;;;;;;8.66;80.56;99294.97;1638280;87;21564;-76
2021/05/02 01:01:05;;;;;;;;;;;;;;;8.66;80.60;99297.11;1641077;87;21201;-75
2021/05/02 01:03:33;;;;;;;46.08;33.60;;;;;;;8.65;80.65;99289.33;1643684;87;20173;-75
2021/05/02 01:06:07;;;;;;;50.95;33.90;;;;;;;8.62;80.64;99289.12;1638056;87;21203;-76
2021/05/02 01:08:36;;;;;;;49.67;34.80;;;;;;;8.62;80.68;99282.55;1637738;87;21192;-78
2021/05/02 01:11:05;;;;;;;48.98;35.88;;;;;;;8.62;80.78;99263.27;1638084;87;21149;-76
2021/05/02 01:13:35;;;;;;;50.48;35.08;;;;;;;8.62;80.85;99254.07;1630513;87;21318;-76
2021/05/02 01:16:05;;;;;;;49.40;35.80;;;;;;;8.62;80.98;99258.02;1638225;87;21211;-76
2021/05/02 01:18:32;;;;;;;50.48;34.98;;;;;;;8.61;80.97;99246.66;1631049;87;21164;-76
2021/05/02 01:20:58;;;;;;;48.08;33.83;;;;;;;8.62;81.10;99243.55;1621214;87;21140;-76
2021/05/02 01:23:29;;;;;;;50.20;35.13;;;;;;;8.61;81.12;99238.78;1622199;87;21246;-76
2021/05/02 01:26:00;;;;;;;46.50;34.93;;;;;;;8.61;81.23;99234.83;1621524;88;21168;-77
2021/05/02 01:28:27;;;;;;;44.58;34.15;;;;;;;8.61;81.40;99224.80;1621416;87;21156;-76
2021/05/02 01:30:55;;;;;;;47.80;34.92;;;;;;;8.58;81.54;99211.91;1642972;87;21591;-77
2021/05/02 01:33:21;;;;;;;44.90;33.85;;;;;;;8.56;81.72;99188.38;1645114;87;21109;-76
2021/05/02 01:35:47;;;;;;;46.02;33.38;;;;;;;8.53;81.93;99172.02;1636777;87;21169;-76
2021/05/02 01:38:14;;;;;;;43.87;32.75;;;;;;;8.49;82.05;99160.92;1635848;87;21140;-77
2021/05/02 01:40:41;;;;;;;47.80;34.00;;;;;;;8.45;82.32;99149.80;1626288;87;21190;-76
2021/05/02 01:43:07;;;;;;;44.70;31.93;;;;;;;8.41;82.47;99152.81;1637958;87;21202;-77
2021/05/02 01:45:34;;;;;;;44.93;33.63;;;;;;;8.38;82.68;99143.87;1638175;87;21146;-76
2021/05/02 01:48:04;;;;;;;41.98;33.05;;;;;;;8.35;83.11;99144.09;1637850;87;21694;-77
2021/05/02 01:50:35;;;;;;;49.33;34.48;;;;;;;8.31;83.09;99138.25;1638063;87;21589;-77
2021/05/02 01:53:03;;;;;;;45.92;34.38;;;;;;;8.29;83.35;99136.25;1638011;87;21186;-77
2021/05/02 01:55:31;;;;;;;46.42;34.38;;;;;;;8.28;83.47;99138.50;1628099;87;21116;-77
2021/05/02 01:57:57;;;;;;;49.13;35.40;;;;;;;8.27;83.44;99130.75;1621228;87;21140;-78
2021/05/02 02:00:29;;;;;;;49.80;36.05;;;;;;;8.27;83.77;99128.12;1621261;87;21322;-78
2021/05/02 02:03:00;;;;;;;48.48;34.48;;;;;;;8.24;83.73;99122.63;1612605;87;21533;-78
2021/05/02 02:05:26;;;;;;;47.00;35.52;;;;;;;8.23;83.84;99109.16;1620707;88;21172;-77
2021/05/02 02:07:52;;;;;;;45.95;35.63;;;;;;;8.23;84.05;99094.21;1621095;87;21647;-77
2021/05/02 02:10:21;;;;;;;50.73;35.20;;;;;;;8.22;84.00;99086.44;1621181;88;21207;-77
2021/05/02 02:12:49;;;;;;;50.60;36.17;;;;;;;8.21;84.05;99081.66;1621317;87;21293;-78
2021/05/02 02:15:16;;;;;;;45.50;34.60;;;;;;;8.22;84.30;99085.95;1621439;87;21140;-78
2021/05/02 02:17:43;;;;;;;45.03;33.25;;;;;;;8.20;84.46;99083.12;1621126;88;21144;-78
2021/05/02 02:20:12;;;;;;;51.65;36.50;;;;;;;8.18;84.44;99074.03;1621294;87;21206;-77
2021/05/02 02:22:41;;;;;;;49.70;36.73;;;;;;;8.17;84.64;99065.81;1621213;87;21737;-78
2021/05/02 02:25:10;;;;;;;53.25;35.95;;;;;;;8.15;85.14;99058.52;1621152;88;21615;-77
2021/05/02 02:27:38;;;;;;;52.13;38.38;;;;;;;8.15;84.82;99035.36;1622711;87;21143;-77
2021/05/02 02:30:09;;;;;;;50.63;37.53;;;;;;;8.15;84.97;99028.78;1627403;87;21278;-77
2021/05/02 02:32:45;;;;;;;52.33;36.98;;;;;;;8.13;85.28;99014.48;1621052;88;21174;-77
2021/05/02 02:35:18;;;;;;;51.13;35.95;;;;;;;8.12;85.48;99008.02;1622573;87;21571;-77
2021/05/02 02:37:47;;;;;;;54.48;37.70;;;;;;;8.09;85.43;99001.70;1638121;87;21180;-77
2021/05/02 02:40:17;;;;;;;51.13;37.48;;;;;;;8.07;85.62;98994.45;1637993;87;21593;-77
2021/05/02 02:42:46;;;;;;;55.00;37.73;;;;;;;8.06;85.69;98979.63;1638079;87;21184;-77
2021/05/02 02:45:14;;;;;;;55.33;38.23;;;;;;;8.04;85.77;98972.37;1636796;87;21168;-77
2021/05/02 02:47:54;;;;;;;54.75;37.83;;;;;;;8.03;85.93;98966.29;1637969;87;21172;-76
2021/05/02 02:50:21;;;;;;;54.63;37.80;;;;;;;8.02;86.10;98967.23;1636924;87;21588;-78
2021/05/02 02:52:52;;;;;;;53.60;38.15;;;;;;;7.99;86.01;98956.98;1638044;87;21176;-77
2021/05/02 02:55:21;;;;;;;52.67;37.08;;;;;;;7.96;85.99;98959.41;1637592;87;21653;-78
2021/05/02 02:58:01;;;;;;;54.00;37.95;;;;;;;7.95;86.25;98968.22;1637935;87;21149;-78
2021/05/02 03:00:30;;;;;;;53.85;35.73;;;;;;;7.96;86.34;98976.48;1628929;87;22256;-78
2021/05/02 03:03:13;;;;;;;51.30;36.90;;;;;;;7.95;86.32;98972.16;1621187;87;21301;-78
2021/05/02 03:05:40;;;;;;;53.30;37.70;;;;;;;7.96;86.45;98973.85;1621222;88;21160;-77
2021/05/02 03:08:10;;;;;;;53.90;37.10;;;;;;;7.97;86.45;98965.48;1621170;87;21191;-77
2021/05/02 03:10:42;;;;;;;53.52;36.40;;;;;;;7.97;86.58;98966.31;1597025;90;21195;-78
2021/05/02 03:13:11;;;;;;;49.53;35.98;;;;;;;7.98;86.69;98970.59;1602444;87;22010;-77
2021/05/02 03:15:39;;;;;;;52.65;34.95;;;;;;;7.97;86.58;98982.07;1635953;87;22264;-76
2021/05/02 03:18:58;;;;;;;52.17;37.23;;;;;;;7.99;86.77;98987.19;1617981;87;21613;-77
2021/05/02 03:21:29;;;;;;;45.63;32.55;;;;;;;7.99;86.62;98976.22;1610672;88;21156;-76
2021/05/02 03:23:59;;;;;;;46.55;33.42;;;;;;;8.03;86.66;98972.86;1620794;88;21617;-76
2021/05/02 03:26:27;;;;;;;50.95;35.05;;;;;;;8.04;86.90;98968.44;1617618;88;21122;-76
2021/05/02 03:28:59;;;;;;;47.90;34.23;;;;;;;8.04;86.77;98967.12;1622865;87;21172;-76
2021/05/02 03:31:30;;;;;;;44.95;34.65;;;;;;;8.04;86.99;98967.95;1638270;87;21199;-76
2021/05/02 03:34:04;;;;;;;42.80;31.15;;;;;;;8.05;86.74;98959.09;1637949;87;21200;-76
2021/05/02 03:36:42;;;;;;;44.45;31.50;;;;;;;8.07;86.85;98954.55;1637615;87;21121;-76
2021/05/02 03:39:10;;;;;;;42.30;32.35;;;;;;;8.08;87.05;98956.70;1637549;87;21144;-76
2021/05/02 03:41:36;;;;;;;45.40;32.00;;;;;;;8.06;86.86;98947.65;1638098;87;21666;-77
2021/05/02 03:44:04;;;;;;;43.78;32.35;;;;;;;8.09;86.84;98939.96;1638245;87;21140;-76
2021/05/02 03:46:31;;;;;;;45.05;33.13;;;;;;;8.10;86.98;98945.59;1638095;87;21137;-76
2021/05/02 03:49:06;;;;;;;45.15;31.68;;;;;;;8.10;86.86;98937.22;1624017;87;21140;-76
2021/05/02 03:51:35;;;;;;;41.18;29.65;;;;;;;8.11;86.82;98938.05;1621030;88;21630;-75
2021/05/02 03:54:02;;;;;;;42.00;28.90;;;;;;;8.11;86.92;98929.69;1621100;88;21366;-76
2021/05/02 03:56:32;;;;;;;40.60;28.12;;;;;;;8.12;86.96;98930.52;1621123;88;21158;-76
2021/05/02 03:59:13;;;;;;;37.75;26.73;;;;;;;8.10;87.02;98920.15;1621218;88;21120;-76
2021/05/02 04:01:55;;;;;;;35.90;27.45;;;;;;;8.10;87.08;98913.58;1621145;88;21113;-76
2021/05/02 04:04:25;;;;;;;39.92;27.70;;;;;;;8.10;87.23;98906.18;1621335;88;22645;-76
2021/05/02 04:06:51;;;;;;;35.30;24.57;;;;;;;8.10;87.11;98893.05;1621036;88;21211;-76
2021/05/02 04:09:18;;;;;;;32.28;24.92;;;;;;;8.09;87.27;98879.05;1599535;88;21168;-76
2021/05/02 04:11:46;;;;;;;35.48;25.48;;;;;;;8.08;87.22;98876.08;1621061;88;21148;-76
2021/05/02 04:14:14;;;;;;;34.30;25.15;;;;;;;8.08;87.26;98887.08;1621232;88;21708;-76
2021/05/02 04:16:42;;;;;;;33.15;26.93;;;;;;;8.06;87.21;98904.75;1621124;88;21183;-76
2021/05/02 04:19:10;;;;;;;34.15;24.85;;;;;;;8.05;87.24;98915.75;1621313;88;21341;-76
2021/05/02 04:21:37;;;;;;;29.02;22.15;;;;;;;8.04;87.14;98919.83;1631574;87;21097;-76
2021/05/02 04:24:05;;;;;;;30.90;22.50;;;;;;;8.04;87.29;98916.72;1638069;87;21163;-76
2021/05/02 04:26:31;;;;;;;27.45;20.52;;;;;;;8.02;87.33;98912.06;1638234;87;21180;-76
2021/05/02 04:28:57;;;;;;;27.58;21.15;;;;;;;8.02;87.59;98913.86;1638178;87;21202;-76
2021/05/02 04:31:23;;;;;;;25.85;20.00;;;;;;;7.99;87.46;98920.20;1638300;87;21334;-76
2021/05/02 04:33:49;;;;;;;26.62;19.07;;;;;;;7.98;87.51;98927.73;1638135;87;21223;-76
2021/05/02 04:36:15;;;;;;;24.47;18.15;;;;;;;7.98;87.46;98944.33;1638232;87;21586;-76
2021/05/02 04:38:41;;;;;;;21.05;16.45;;;;;;;7.97;87.54;98951.86;1638130;87;21181;-76
2021/05/02 04:41:07;;;;;;;22.25;15.88;;;;;;;7.96;87.70;98958.55;1638290;87;21153;-76
2021/05/02 04:43:34;;;;;;;21.42;15.32;;;;;;;7.94;87.73;98960.00;1638158;87;21612;-76
2021/05/02 04:46:00;;;;;;;20.82;14.85;;;;;;;7.92;87.98;98953.20;1638091;87;21192;-76
2021/05/02 04:48:26;;;;;;;21.77;15.48;;;;;;;7.89;87.80;98949.03;1642694;87;21147;-76
2021/05/02 04:50:52;;;;;;;18.30;13.83;;;;;;;7.89;87.87;98934.59;1605040;89;21144;-76
2021/05/02 04:53:19;;;;;;;19.92;16.60;;;;;;;7.88;88.14;98926.84;1609125;88;21201;-76
2021/05/02 04:55:47;;;;;;;25.27;20.17;;;;;;;7.87;88.01;98936.52;1622583;88;21140;-76
2021/05/02 04:58:14;;;;;;;22.65;19.60;;;;;;;7.88;87.96;98938.66;1622000;88;21372;-76
2021/05/02 05:00:40;;;;;;;20.75;16.07;;;;;;;7.87;88.03;98938.32;1622623;88;21227;-76
2021/05/02 05:03:06;;;;;;;21.45;18.05;;;;;;;7.84;88.20;98928.90;1622554;88;21171;-76
2021/05/02 05:05:33;;;;;;;18.02;14.45;;;;;;;7.83;88.15;98918.05;1622623;88;21179;-76
2021/05/02 05:07:58;;;;;;;17.35;14.53;;;;;;;7.82;88.34;98907.66;1622493;88;21215;-76
2021/05/02 05:10:25;;;;;;;17.10;13.48;;;;;;;7.80;88.57;98897.75;1622601;88;21171;-76
2021/05/02 05:12:51;;;;;;;16.93;13.15;;;;;;;7.76;88.45;98893.23;1622559;88;21176;-76
2021/05/02 05:15:17;;;;;;;17.23;12.35;;;;;;;7.74;88.60;98891.24;1621687;87;21147;-76
2021/05/02 05:17:42;;;;;;;15.53;12.82;;;;;;;7.71;88.78;98883.13;1621190;87;21611;-76
2021/05/02 05:20:10;;;;;;;16.80;12.25;;;;;;;7.70;88.65;98884.11;1621163;88;21307;-77
2021/05/02 05:22:36;;;;;;;15.55;12.18;;;;;;;7.71;88.86;98890.19;1621172;88;21160;-76
2021/05/02 05:25:03;;;;;;;17.92;12.13;;;;;;;7.70;88.77;98889.81;1621225;88;21180;-76
2021/05/02 05:27:29;;;;;;;17.37;12.95;;;;;;;7.68;88.93;98887.33;1628790;87;21641;-76
2021/05/02 05:29:54;;;;;;;15.60;11.90;;;;;;;7.69;88.84;98893.41;1638225;87;21183;-76
2021/05/02 05:32:20;;;;;;;14.40;11.12;;;;;;;7.67;88.94;98884.84;1638206;87;21295;-76
2021/05/02 05:34:46;;;;;;;16.05;12.40;;;;;;;7.66;89.20;98883.16;1638189;87;21263;-76
2021/05/02 05:37:13;;;;;;;16.17;12.50;;;;;;;7.65;89.07;98865.27;1638045;87;21203;-76
2021/05/02 05:39:38;;;;;;;14.20;10.80;;;;;;;7.65;89.32;98851.31;1629502;87;21152;-77
2021/05/02 05:42:08;;;;;;;15.55;11.57;;;;;;;7.62;89.36;98830.56;1621080;88;21689;-77
2021/05/02 05:44:34;;;;;;;12.85;10.48;;;;;;;7.58;89.39;98797.66;1621278;88;21180;-76
2021/05/02 05:47:00;;;;;;;16.55;9.60;;;;;;;7.54;89.61;98774.78;1621013;88;21192;-77
2021/05/02 05:49:26;;;;;;;12.88;9.65;;;;;;;7.52;89.59;98763.08;1621197;88;21172;-77
2021/05/02 05:51:53;;;;;;;12.50;9.25;;;;;;;7.48;89.71;98748.56;1621020;88;21625;-77
2021/05/02 05:54:22;;;;;;;10.20;8.23;;;;;;;7.46;89.95;98732.59;1621238;88;21204;-77
2021/05/02 05:56:48;;;;;;;13.85;10.35;;;;;;;7.43;89.89;98729.73;1621024;88;21795;-76
2021/05/02 05:59:15;;;;;;;11.88;9.45;;;;;;;7.41;89.98;98721.18;1621174;88;21125;-76
2021/05/02 06:01:42;;;;;;;12.13;9.35;;;;;;;7.40;90.17;98716.88;1621281;87;21144;-77
2021/05/02 06:04:08;;;;;;;10.88;8.38;;;;;;;7.39;90.19;98713.91;1639148;87;21109;-77
2021/05/02 06:06:36;;;;;;;11.95;9.03;;;;;;;7.40;90.41;98708.17;1638005;87;21140;-76
2021/05/02 06:09:06;;;;;;;11.05;7.75;;;;;;;7.39;90.32;98713.08;1636266;87;21151;-77
2021/05/02 06:11:33;;;;;;;9.88;7.95;;;;;;;7.38;90.28;98713.56;1638060;87;21137;-76
2021/05/02 06:13:59;;;;;;;10.10;7.60;;;;;;;7.39;90.38;98717.84;1638236;87;21624;-77
2021/05/02 06:16:26;;;;;;;8.68;6.97;;;;;;;7.38;90.46;98724.06;1638201;87;21153;-76
2021/05/02 06:18:54;;;;;;;8.83;6.80;;;;;;;7.37;90.40;98719.78;1638239;87;21145;-76
2021/05/02 06:21:21;;;;;;;8.73;6.50;;;;;;;7.38;90.32;98725.38;1638156;87;21190;-76
2021/05/02 06:23:52;;;;;;;8.03;5.70;;;;;;;7.39;90.35;98719.16;1638054;87;21156;-76
2021/05/02 06:26:19;;;;;;;10.15;6.55;;;;;;;7.38;90.40;98710.94;1638185;87;21129;-77
2021/05/02 06:28:46;;;;;;;10.08;6.95;;;;;;;7.37;90.38;98713.23;1638068;87;21156;-76
2021/05/02 06:31:14;;;;;;;9.65;7.67;;;;;;;7.36;90.42;98707.61;1638228;87;21149;-76
2021/05/02 06:33:40;;;;;;;9.05;7.40;;;;;;;7.35;90.38;98702.02;1630919;87;21211;-76
2021/05/02 06:36:07;;;;;;;9.10;6.37;;;;;;;7.34;90.51;98699.51;1638183;87;21192;-76
2021/05/02 06:38:33;;;;;;;5.85;5.05;;;;;;;7.33;90.48;98704.41;1637933;87;21096;-77
2021/05/02 06:40:59;;;;;;;8.30;6.47;;;;;;;7.33;90.48;98702.61;1621191;88;21218;-76
2021/05/02 06:43:25;;;;;;;8.05;7.25;;;;;;;7.33;90.54;98709.66;1621107;88;21168;-76
2021/05/02 06:45:51;;;;;;;8.30;6.87;;;;;;;7.32;90.55;98706.70;1633239;87;21178;-76
2021/05/02 06:48:17;;;;;;;8.13;6.58;;;;;;;7.33;90.63;98709.17;1638066;87;21156;-76
2021/05/02 06:50:44;;;;;;;8.68;6.67;;;;;;;7.32;90.69;98712.77;1638176;87;21207;-76
2021/05/02 06:53:11;;;;;;;8.55;7.00;;;;;;;7.32;90.69;98712.77;1637970;87;21121;-76
2021/05/02 06:55:37;;;;;;;7.25;6.10;;;;;;;7.32;90.58;98721.13;1638151;87;21168;-76
2021/05/02 06:58:03;;;;;;;8.08;6.25;;;;;;;7.32;90.55;98724.58;1637925;87;21627;-76
2021/05/02 07:00:30;;;;;;;7.33;5.62;;;;;;;7.32;90.68;98728.52;1638310;87;21169;-76
2021/05/02 07:02:56;;;;;;;8.20;6.25;;;;;;;7.31;90.57;98726.03;1638001;87;21121;-76
2021/05/02 07:05:22;;;;;;;8.35;6.92;;;;;;;7.31;90.57;98719.47;1638231;87;21153;-76
2021/05/02 07:07:52;;;;;;;7.55;6.78;;;;;;;7.31;90.63;98718.16;1623666;87;21222;-76
2021/05/02 07:10:17;;;;;;;6.65;5.90;;;;;;;7.31;90.71;98716.36;1620315;88;21204;-76
2021/05/02 07:12:43;;;;;;;8.03;6.37;;;;;;;7.32;90.78;98715.39;1620719;88;21302;-76
2021/05/02 07:15:11;;;;;;;7.60;6.53;;;;;;;7.33;90.73;98717.05;1620939;88;21717;-76
2021/05/02 07:17:37;;;;;;;6.47;5.65;;;;;;;7.33;90.75;98714.91;1620826;88;21165;-76
2021/05/02 07:20:08;;;;;;;6.15;5.00;;;;;;;7.32;90.75;98714.56;1620814;88;21356;-76
2021/05/02 07:22:34;;;;;;;7.62;6.92;;;;;;;7.32;90.82;98708.84;1620819;88;21183;-76
2021/05/02 07:25:00;;;;;;;7.92;6.47;;;;;;;7.33;90.82;98713.59;1620748;88;21314;-76
2021/05/02 07:27:26;;;;;;;6.55;5.60;;;;;;;7.31;90.90;98713.74;1620891;88;21170;-76
2021/05/02 07:29:52;;;;;;;8.18;5.80;;;;;;;7.32;90.93;98715.88;1621052;88;21273;-76
2021/05/02 07:32:18;;;;;;;8.65;5.90;;;;;;;7.31;90.93;98716.36;1637623;87;21200;-76
2021/05/02 07:34:44;;;;;;;5.72;4.58;;;;;;;7.31;90.80;98712.42;1620942;88;21180;-76
2021/05/02 07:37:11;;;;;;;5.47;3.87;;;;;;;7.31;90.83;98708.49;1620825;88;21318;-76
2021/05/02 07:39:40;;;;;;;8.75;6.10;;;;;;;7.20;90.97;98681.00;1624328;87;21133;-76
2021/05/02 07:42:06;;;;;;;7.67;6.53;;;;;;;7.32;91.00;98698.34;1637671;87;21227;-76
2021/05/02 07:44:32;;;;;;;5.08;4.08;;;;;;;7.32;91.13;98698.34;1637760;87;21189;-76
2021/05/02 07:46:58;;;;;;;6.45;5.50;;;;;;;7.33;91.10;98696.05;1637564;87;21756;-76
2021/05/02 07:49:24;;;;;;;6.60;5.12;;;;;;;7.34;91.25;98696.42;1637934;87;22383;-76
2021/05/02 07:51:50;;;;;;;6.60;4.65;;;;;;;7.34;91.15;98695.56;1637800;87;21194;-76
2021/05/02 07:54:16;;;;;;;6.78;5.58;;;;;;;7.33;91.11;98692.13;1637967;87;21125;-76
2021/05/02 07:56:41;;;;;;;7.17;6.25;;;;;;;7.34;91.19;98690.32;1637900;87;21299;-76
2021/05/02 07:59:07;;;;;;;7.65;6.85;;;;;;;7.35;91.21;98693.31;1636759;87;21615;-76
2021/05/02 08:01:33;;;;;;;6.65;5.30;;;;;;;7.33;91.09;98690.80;1645488;85;21148;-76
2021/05/02 08:03:59;;;;;;;6.78;5.70;;;;;;;7.34;91.30;98684.62;1637844;87;21391;-76
2021/05/02 08:06:25;;;;;;;7.03;6.08;;;;;;;7.33;91.21;98683.42;1645212;87;21589;-76
2021/05/02 08:08:52;;;;;;;8.75;7.85;;;;;;;7.33;91.28;98684.25;1628549;87;21231;-76
2021/05/02 08:11:18;;;;;;;7.53;6.35;;;;;;;7.35;91.40;98686.76;1629784;87;21196;-76
2021/05/02 08:13:45;;;;;;;12.75;10.43;;;;;;;7.35;91.28;98684.13;1631309;87;21731;-76
2021/05/02 08:16:11;;;;;;;11.43;8.35;;;;;;;7.35;91.26;98674.46;1607798;88;21200;-76
2021/05/02 08:18:37;;;;;;;6.67;5.58;;;;;;;7.36;91.50;98673.49;1611276;88;21180;-76
2021/05/02 08:21:06;;;;;;;6.70;5.80;;;;;;;7.36;91.48;98672.66;1603827;88;21762;-76
2021/05/02 08:23:31;;;;;;;9.05;6.75;;;;;;;7.34;91.20;98680.69;1619657;88;21729;-76
2021/05/02 08:25:57;;;;;;;6.75;5.62;;;;;;;7.34;91.42;98683.31;1594987;89;21315;-76
2021/05/02 08:28:23;;;;;;;16.48;10.75;;;;;;;7.34;91.45;98690.32;1597237;88;21787;-76
2021/05/02 08:30:49;;;;;;;7.90;5.97;;;;;;;7.32;91.63;98688.33;1606270;89;21351;-76
2021/05/02 08:33:14;;;;;;;5.95;4.95;;;;;;;7.33;91.48;98697.85;1639549;87;21188;-76
2021/05/02 08:35:41;;;;;;;8.98;6.35;;;;;;;7.32;91.48;98699.66;1617218;89;21323;-76
2021/05/02 08:38:07;;;;;;;11.30;7.87;;;;;;;7.32;91.51;98700.96;1614193;89;21659;-76
2021/05/02 08:40:33;;;;;;;6.67;4.97;;;;;;;7.34;91.52;98708.69;1615971;89;21298;-76
2021/05/02 08:43:04;;;;;;;14.60;10.40;;;;;;;7.33;91.57;98710.48;1613834;89;21188;-76
2021/05/02 08:45:35;;;;;;;11.53;8.38;;;;;;;7.35;91.82;98711.20;1632634;87;21216;-76
2021/05/02 08:48:00;;;;;;;17.82;12.78;;;;;;;7.36;91.79;98722.52;1625485;88;21169;-76
2021/05/02 08:50:27;;;;;;;8.23;5.50;;;;;;;7.37;91.67;98724.17;1626582;88;21360;-76
2021/05/02 08:52:53;;;;;;;6.90;5.20;;;;;;;7.38;91.90;98726.69;1627911;88;21266;-76
2021/05/02 08:55:18;;;;;;;7.00;5.17;;;;;;;7.38;91.60;98730.63;1628112;88;21198;-76
2021/05/02 08:57:44;;;;;;;7.10;5.33;;;;;;;7.37;91.63;98731.59;1627786;88;21258;-76
2021/05/02 09:00:11;;;;;;;6.50;5.20;;;;;;;7.15;91.75;98693.70;1627691;88;21196;-76
2021/05/02 09:02:37;;;;;;;8.53;6.90;;;;;;;7.39;91.74;98732.77;1627693;88;21174;-76
2021/05/02 09:05:07;;;;;;;4.78;4.12;;;;;;;7.40;91.97;98736.55;1626812;88;21138;-76
2021/05/02 09:07:44;;;;;;;5.70;4.78;;;;;;;7.38;91.52;98743.75;1626771;88;21354;-76
2021/05/02 09:10:12;;;;;;;12.58;10.43;;;;;;;7.37;91.49;98743.86;1626243;88;21225;-76
2021/05/02 09:12:41;;;;;;;9.20;7.78;;;;;;;7.37;91.75;98749.96;1625883;88;21296;-76
2021/05/02 09:15:18;;;;;;;7.25;4.42;;;;;;;7.37;91.77;98749.96;1627355;88;21227;-76
2021/05/02 09:17:55;;;;;;;6.30;3.87;;;;;;;7.37;91.73;98748.66;1628095;88;21594;-76
2021/05/02 09:20:41;;;;;;;5.20;3.62;;;;;;;7.35;91.84;98753.19;1627327;88;21321;-76
2021/05/02 09:23:08;;;;;;;5.85;4.15;;;;;;;7.33;91.88;98759.03;1627702;88;21341;-76
2021/05/02 09:25:54;;;;;;;4.87;3.70;;;;;;;7.32;91.89;98767.88;1627907;88;21116;-76
2021/05/02 09:28:56;;;;;;;5.45;4.15;;;;;;;7.31;91.84;98764.91;1626995;88;21221;-76
2021/05/02 09:31:28;;;;;;;5.50;3.87;;;;;;;7.31;92.02;98774.09;1628074;88;21738;-76
2021/05/02 09:33:55;;;;;;;5.37;4.40;;;;;;;7.32;92.08;98776.23;1627651;88;21639;-76
2021/05/02 09:36:22;;;;;;;7.53;4.97;;;;;;;7.30;92.15;98781.59;1624036;88;21165;-77
2021/05/02 09:38:49;;;;;;;5.90;4.40;;;;;;;7.29;91.90;98781.25;1627824;88;21759;-77
2021/05/02 09:41:17;;;;;;;6.62;4.92;;;;;;;7.28;92.12;98784.84;1628021;87;21590;-77
2021/05/02 09:43:48;;;;;;;5.97;4.67;;;;;;;7.28;92.05;98790.09;1631696;87;21134;-77
2021/05/02 09:46:29;;;;;;;5.47;3.85;;;;;;;7.27;92.01;98786.64;1627048;88;21662;-77
2021/05/02 09:49:12;;;;;;;4.80;3.62;;;;;;;7.26;92.06;98788.06;1627844;88;21142;-77
2021/05/02 09:51:51;;;;;;;5.22;3.92;;;;;;;7.25;92.06;98799.04;1627481;88;21187;-76
2021/05/02 09:54:20;;;;;;;4.95;3.87;;;;;;;7.25;92.19;98806.91;1628169;88;21195;-76
2021/05/02 09:56:50;;;;;;;3.92;3.62;;;;;;;7.26;92.23;98815.61;1630008;87;22513;-76
2021/05/02 09:59:28;;;;;;;6.15;4.70;;;;;;;7.25;92.22;98825.28;1645172;86;21180;-76
2021/05/02 10:02:14;;;;;;;5.00;4.12;;;;;;;7.24;92.36;98827.55;1635625;87;21332;-75
2021/05/02 10:04:49;;;;;;;5.17;3.87;;;;;;;7.23;92.28;98832.43;1615737;89;21495;-78
2021/05/02 10:07:17;;;;;;;5.97;4.25;;;;;;;7.25;92.61;98841.50;1642030;86;21150;-77
2021/05/02 10:09:44;;;;;;;4.70;3.23;;;;;;;7.24;92.54;98838.05;1641877;86;21158;-77
2021/05/02 10:12:13;;;;;;;5.37;3.10;;;;;;;7.25;92.47;98844.13;1640642;86;21213;-77
2021/05/02 10:14:41;;;;;;;4.10;2.98;;;;;;;7.25;92.59;98847.58;1629724;86;21198;-77
2021/05/02 10:17:08;;;;;;;4.45;3.02;;;;;;;7.28;92.65;98849.13;1664982;85;21104;-76
2021/05/02 10:19:35;;;;;;;5.28;3.80;;;;;;;7.26;92.64;98846.61;1656500;86;21558;-76
2021/05/02 10:22:01;;;;;;;3.72;3.30;;;;;;;7.26;92.67;98846.61;1661689;85;21205;-77
2021/05/02 10:24:27;;;;;;;6.03;4.53;;;;;;;7.27;92.66;98857.48;1663729;85;21141;-77
2021/05/02 10:26:54;;;;;;;6.12;3.55;;;;;;;7.27;92.72;98856.62;1655067;86;21646;-77
2021/05/02 10:29:29;;;;;;;4.37;3.27;;;;;;;7.27;92.71;98865.35;1666656;85;21177;-77
2021/05/02 10:32:05;;;;;;;4.58;3.90;;;;;;;7.25;92.62;98865.94;1654860;86;21561;-77
2021/05/02 10:34:38;;;;;;;4.72;3.05;;;;;;;7.26;92.84;98878.58;1657050;85;21507;-77
2021/05/02 10:37:28;;;;;;;3.65;2.70;;;;;;;7.23;92.84;98883.59;1631416;87;21154;-77
2021/05/02 10:40:06;;;;;;;5.15;3.33;;;;;;;7.23;92.64;98881.45;1667167;85;21707;-76
2021/05/02 10:42:53;;;;;;;4.70;2.87;;;;;;;7.22;92.71;98896.36;1656517;85;21188;-76
2021/05/02 10:45:34;;;;;;;4.33;3.02;;;;;;;7.22;92.79;98902.09;1633290;85;21143;-76
2021/05/02 10:48:17;;;;;;;3.10;2.80;;;;;;;7.21;92.90;98906.52;1649310;86;21116;-77
2021/05/02 10:50:47;;;;;;;;;;;;;;;7.21;92.99;98920.11;1656124;86;21173;-75
2021/05/02 10:53:19;;;;;;;4.87;3.33;;;;;;;7.19;92.94;98931.20;1653179;86;20483;-75
2021/05/02 10:56:04;;;;;;;4.72;3.42;;;;;;;7.18;93.39;98938.73;1651414;86;21643;-76
2021/05/02 10:58:39;;;;;;;3.95;3.12;;;;;;;7.18;93.20;98946.59;1654911;86;21210;-75
2021/05/02 11:01:26;;;;;;;4.33;3.20;;;;;;;7.19;93.37;98949.08;1652275;86;21155;-75
2021/05/02 11:03:53;;;;;;;7.15;4.92;;;;;;;7.20;93.17;98952.53;1647048;86;21095;-76
2021/05/02 11:06:43;;;;;;;3.90;2.60;;;;;;;7.18;93.17;98961.86;1645956;86;21154;-78
2021/05/02 11:09:16;;;;;;;4.25;2.92;;;;;;;7.18;93.13;98973.66;1646702;86;21482;-76
2021/05/02 11:11:49;;;;;;;4.00;2.20;;;;;;;7.19;93.22;98972.69;1609728;88;21217;-78
2021/05/02 11:14:26;;;;;;;3.37;2.33;;;;;;;7.21;93.37;98986.53;1634004;87;21312;-76
2021/05/02 11:17:05;;;;;;;3.80;3.02;;;;;;;7.25;93.41;99002.86;1635135;87;21228;-76
2021/05/02 11:19:38;;;;;;;2.55;2.22;;;;;;;7.29;93.44;98988.53;1616549;88;21199;-77
2021/05/02 11:22:12;;;;;;;3.12;2.08;;;;;;;7.33;93.49;98983.39;1643791;86;21158;-76
2021/05/02 11:24:51;;;;;;;4.75;2.27;;;;;;;7.36;93.47;98994.13;1609738;87;21185;-77
2021/05/02 11:27:47;;;;;;;5.92;3.02;;;;;;;7.41;93.56;98995.43;1623380;88;21148;-76
2021/05/02 11:30:18;;;;;;;2.95;1.80;;;;;;;7.45;93.57;99002.09;1642967;86;21303;-77
2021/05/02 11:32:45;;;;;;;3.60;2.10;;;;;;;7.49;93.59;99011.86;1610414;89;21370;-76
2021/05/02 11:35:16;;;;;;;3.70;2.65;;;;;;;7.47;92.90;99013.31;1607545;89;21164;-76
2021/05/02 11:37:56;;;;;;;3.40;2.33;;;;;;;7.41;92.55;99012.48;1643576;87;21284;-76
2021/05/02 11:40:34;;;;;;;2.70;2.10;;;;;;;7.34;92.38;99016.56;1669751;85;21139;-77
2021/05/02 11:43:11;;;;;;;3.00;1.87;;;;;;;7.25;92.17;99030.41;1655835;86;21121;-78
2021/05/02 11:45:51;;;;;;;3.72;2.40;;;;;;;7.15;91.97;99038.17;1654538;86;21165;-77